1873 NOT_NAMED (1873060S16067)


IBTrACS version v04r00. Visit IBTrACS website for data access.
Please direct all questions to the IBTrACS Q and A forum

Storm track - Intensity - Wind Radii - Intensity Data - Source Data - All data

Summary Information

Storm ID 1873060S16067
Start Mar 1 06Z
End Mar 8 06Z
ATCF IDs
Track status Best track data.

Storm track plot

Map of storm track

Intensity plots

No Intensity information for this storm


Radial wind information

No radial wind information for this storm


Position and Intensity Table

BASIN ISO_TIME_________ NATURE LAT LON
degrees north degrees east
SI 1873-03-01 06:00:00 NR -15.75 67.40
SI 09:00:00 NR -15.92 67.22
SI 12:00:00 NR -16.10 67.03
SI 15:00:00 NR -16.29 66.85
SI 18:00:00 NR -16.52 66.66
SI 21:00:00 NR -16.77 66.47
SI 1873-03-02 00:00:00 NR -17.05 66.28
SI 03:00:00 NR -17.35 66.09
SI 06:00:00 NR -17.65 65.90
SI 09:00:00 NR -17.95 65.71
SI 12:00:00 NR -18.24 65.54
SI 15:00:00 NR -18.54 65.37
SI 18:00:00 NR -18.85 65.21
SI 21:00:00 NR -19.17 65.07
SI 1873-03-03 00:00:00 NR -19.48 64.95
SI 03:00:00 NR -19.78 64.86
SI 06:00:00 NR -20.05 64.80
SI 09:00:00 NR -20.27 64.78
SI 12:00:00 NR -20.48 64.78
SI 15:00:00 NR -20.67 64.80
SI 18:00:00 NR -20.84 64.83
SI 21:00:00 NR -21.01 64.88
SI 1873-03-04 00:00:00 NR -21.18 64.93
SI 03:00:00 NR -21.34 65.00
SI 06:00:00 NR -21.50 65.10
SI 09:00:00 NR -21.68 65.20
SI 12:00:00 NR -21.85 65.33
SI 15:00:00 NR -22.03 65.48
SI 18:00:00 NR -22.20 65.63
SI 21:00:00 NR -22.35 65.75
SI 1873-03-05 00:00:00 NR -22.49 65.88
SI 03:00:00 NR -22.66 66.04
SI 06:00:00 NR -22.85 66.25
SI 09:00:00 NR -23.11 66.55
SI 12:00:00 NR -23.39 66.91
SI 15:00:00 NR -23.69 67.30
SI 18:00:00 NR -23.98 67.69
SI 21:00:00 NR -24.24 68.07
SI 1873-03-06 00:00:00 NR -24.48 68.45
SI 03:00:00 NR -24.70 68.81
SI 06:00:00 NR -24.90 69.15
SI 09:00:00 NR -25.08 69.46
SI 12:00:00 NR -25.25 69.76
SI 15:00:00 NR -25.40 70.04
SI 18:00:00 NR -25.54 70.31
SI 21:00:00 NR -25.67 70.56
SI 1873-03-07 00:00:00 NR -25.79 70.81
SI 03:00:00 NR -25.90 71.03
SI 06:00:00 NR -26.00 71.22
SI 09:00:00 NR -26.07 71.35
SI 12:00:00 NR -26.13 71.48
SI 15:00:00 NR -26.17 71.58
SI 18:00:00 NR -26.21 71.67
SI 21:00:00 NR -26.24 71.74
SI 1873-03-08 00:00:00 NR -26.26 71.80
SI 03:00:00 NR -26.28 71.85
SI 06:00:00 NR -26.30 71.90

Source Information

Agency Information
USA
TOKYO
CMA
HKO
NEWDELHI
REUNION WMO-Best-Tracks.txt:Line=1002:xxxx873146
BOM
NADI
WELLINGTON
DS824
TD9636 cons_worldwide_trop_cyclone_18710101-19891231-005:Line=1361
TD9635
NEUMANN
MLC

All available IBTrACS Data

SEASON BASIN SUBBASIN ISO_TIME_________ NATURE LAT LON WMO AGENCY DIST2LAND LANDFALL IFLAG USA SSHS REUNION LAT REUNION LON REUNION TYPE REUNION TNUM TD9636 LAT TD9636 LON TD9636 STAGE STORM SPEED STORM DIR
Year degrees north degrees east km km 1 degrees north degrees east 1 degrees north degrees east kts degrees
1873 SI MM 1873-03-01 06:00:00 NR -15.75 67.40 reunion 1137 1108 _____O____O___ -1 -15.50 67.80 99 9.90 -16.00 67.00 7 5 226
1873 SI MM 09:00:00 NR -15.92 67.22 1108 1079 _____P____P___ -1 -15.49 67.77 99 -16.35 66.66 7 5 225
1873 SI MM 12:00:00 NR -16.10 67.03 1079 1059 _____P____P___ -1 -15.48 67.74 99 -16.71 66.33 7 5 223
1873 SI MM 15:00:00 NR -16.29 66.85 1050 1030 _____P____P___ -1 -15.50 67.69 99 -17.09 66.01 7 6 221
1873 SI MM 18:00:00 NR -16.52 66.66 1030 997 _____P____O___ -1 -15.53 67.62 99 -17.50 65.70 7 6 217
1873 SI MM 21:00:00 NR -16.77 66.47 997 968 _____P____P___ -1 -15.60 67.53 99 -17.94 65.41 7 7 214
1873 SI MM 1873-03-02 00:00:00 NR -17.05 66.28 964 935 _____P____P___ -1 -15.72 67.39 99 -18.39 65.16 7 7 212
1873 SI MM 03:00:00 NR -17.35 66.09 935 903 _____P____P___ -1 -15.88 67.22 99 -18.82 64.95 7 7 211
1873 SI MM 06:00:00 NR -17.65 65.90 reunion 903 872 _____O____O___ -1 -16.10 67.00 99 9.90 -19.20 64.80 7 7 211
1873 SI MM 09:00:00 NR -17.95 65.71 872 841 _____P____P___ -1 -16.38 66.73 99 -19.51 64.70 7 7 210
1873 SI MM 12:00:00 NR -18.24 65.54 841 822 _____P____P___ -1 -16.72 66.41 99 -19.77 64.66 7 7 209
1873 SI MM 15:00:00 NR -18.54 65.37 822 793 _____P____P___ -1 -17.10 66.07 99 -19.99 64.66 7 7 207
1873 SI MM 18:00:00 NR -18.85 65.21 793 773 _____P____O___ -1 -17.50 65.73 99 -20.20 64.70 7 7 204
1873 SI MM 21:00:00 NR -19.17 65.07 773 757 _____P____P___ -1 -17.91 65.39 99 -20.43 64.75 7 7 201
1873 SI MM 1873-03-03 00:00:00 NR -19.48 64.95 757 743 _____P____P___ -1 -18.33 65.08 99 -20.64 64.83 7 6 198
1873 SI MM 03:00:00 NR -19.78 64.86 743 731 _____P____P___ -1 -18.73 64.81 99 -20.83 64.92 7 6 194
1873 SI MM 06:00:00 NR -20.05 64.80 reunion 731 729 _____O____O___ -1 -19.10 64.60 99 9.90 -21.00 65.00 7 5 189
1873 SI MM 09:00:00 NR -20.27 64.78 729 729 _____P____P___ -1 -19.40 64.49 99 -21.15 65.06 7 4 183
1873 SI MM 12:00:00 NR -20.48 64.78 729 729 _____P____P___ -1 -19.68 64.44 99 -21.28 65.12 7 4 0
1873 SI MM 15:00:00 NR -20.67 64.80 730 730 _____P____P___ -1 -19.94 64.43 99 -21.39 65.16 7 4 171
1873 SI MM 18:00:00 NR -20.84 64.83 730 730 _____P____O___ -1 -20.19 64.47 99 -21.50 65.20 7 4 167
1873 SI MM 21:00:00 NR -21.01 64.88 742 742 _____P____P___ -1 -20.42 64.54 99 -21.60 65.21 7 3 165
1873 SI MM 1873-03-04 00:00:00 NR -21.18 64.93 744 744 _____P____P___ -1 -20.65 64.64 99 -21.70 65.22 7 3 160
1873 SI MM 03:00:00 NR -21.34 65.00 756 756 _____P____P___ -1 -20.88 64.76 99 -21.80 65.24 7 4 154
1873 SI MM 06:00:00 NR -21.50 65.10 reunion 769 769 _____O____O___ -1 -21.10 64.90 99 9.90 -21.90 65.30 7 4 151
1873 SI MM 09:00:00 NR -21.68 65.20 783 783 _____P____P___ -1 -21.33 64.99 99 -22.02 65.42 7 4 149
1873 SI MM 12:00:00 NR -21.85 65.33 798 798 _____P____P___ -1 -21.56 65.09 99 -22.15 65.58 7 4 144
1873 SI MM 15:00:00 NR -22.03 65.48 820 820 _____P____P___ -1 -21.78 65.21 99 -22.28 65.74 7 4 142
1873 SI MM 18:00:00 NR -22.20 65.63 835 835 _____P____O___ -1 -22.00 65.36 99 -22.40 65.90 7 4 142
1873 SI MM 21:00:00 NR -22.35 65.75 848 848 _____P____P___ -1 -22.22 65.53 99 -22.47 65.97 7 4 142
1873 SI MM 1873-03-05 00:00:00 NR -22.49 65.88 873 873 _____P____P___ -1 -22.44 65.72 99 -22.55 66.03 7 4 139
1873 SI MM 03:00:00 NR -22.66 66.04 889 889 _____P____P___ -1 -22.67 65.95 99 -22.65 66.13 7 5 136
1873 SI MM 06:00:00 NR -22.85 66.25 reunion 922 912 _____O____O___ -1 -22.90 66.20 99 9.90 -22.80 66.30 7 7 134
1873 SI MM 09:00:00 NR -23.11 66.55 961 961 _____P____P___ -1 -23.16 66.50 99 -23.06 66.60 7 8 132
1873 SI MM 12:00:00 NR -23.39 66.91 1000 1000 _____P____P___ -1 -23.42 66.84 99 -23.36 66.97 7 9 130
1873 SI MM 15:00:00 NR -23.69 67.30 1049 1049 _____P____P___ -1 -23.69 67.20 99 -23.69 67.39 7 9 129
1873 SI MM 18:00:00 NR -23.98 67.69 1099 1099 _____P____O___ -1 -23.96 67.59 99 -24.00 67.80 7 9 128
1873 SI MM 21:00:00 NR -24.24 68.07 1145 1145 _____P____P___ -1 -24.21 67.98 99 -24.26 68.17 7 9 126
1873 SI MM 1873-03-06 00:00:00 NR -24.48 68.45 1185 1185 _____P____P___ -1 -24.46 68.36 99 -24.49 68.53 7 8 125
1873 SI MM 03:00:00 NR -24.70 68.81 1231 1231 _____P____P___ -1 -24.69 68.74 99 -24.71 68.88 7 8 124
1873 SI MM 06:00:00 NR -24.90 69.15 reunion 1277 1267 _____O____O___ -1 -24.90 69.10 99 9.90 -24.90 69.20 7 7 123
1873 SI MM 09:00:00 NR -25.08 69.46 1313 1313 _____P____P___ -1 -25.09 69.43 99 -25.08 69.50 7 7 122
1873 SI MM 12:00:00 NR -25.25 69.76 1349 1349 _____P____P___ -1 -25.27 69.74 99 -25.23 69.78 7 6 121
1873 SI MM 15:00:00 NR -25.40 70.04 1372 1372 _____P____P___ -1 -25.43 70.04 99 -25.37 70.04 7 6 120
1873 SI MM 18:00:00 NR -25.54 70.31 1404 1404 _____P____O___ -1 -25.58 70.32 99 -25.50 70.30 7 5 119
1873 SI MM 21:00:00 NR -25.67 70.56 1440 1440 _____P____P___ -1 -25.71 70.57 99 -25.63 70.55 7 5 119
1873 SI MM 1873-03-07 00:00:00 NR -25.79 70.81 1462 1462 _____P____P___ -1 -25.82 70.81 99 -25.75 70.80 7 5 119
1873 SI MM 03:00:00 NR -25.90 71.03 1485 1485 _____P____P___ -1 -25.92 71.02 99 -25.88 71.05 7 4 119
1873 SI MM 06:00:00 NR -26.00 71.22 reunion 1508 1508 _____O____O___ -1 -26.00 71.20 99 9.90 -26.00 71.30 7 3 120
1873 SI MM 09:00:00 NR -26.07 71.35 1530 1530 _____P________ -1 -26.07 71.35 99 7 3 118
1873 SI MM 12:00:00 NR -26.13 71.48 1540 1540 _____P________ -1 -26.13 71.48 99 7 2 116
1873 SI MM 15:00:00 NR -26.17 71.58 1553 1553 _____P________ -1 -26.17 71.58 99 7 2 116
1873 SI MM 18:00:00 NR -26.21 71.67 1562 1562 _____P________ -1 -26.21 71.67 99 2 115
1873 SI MM 21:00:00 NR -26.24 71.74 1562 1562 _____P________ -1 -26.24 71.74 99 1 114
1873 SI MM 1873-03-08 00:00:00 NR -26.26 71.80 1576 1576 _____P________ -1 -26.26 71.80 99 1 115
1873 SI MM 03:00:00 NR -26.28 71.85 1585 1585 _____P________ -1 -26.28 71.85 99 1 114
1873 SI MM 06:00:00 NR -26.30 71.90 reunion 1585 _____O________ -1 -26.30 71.90 99 9.90 1 118